Terminal Aerodrome Forecast
Issued by NWS Sterling, VA

Current Version | Previous Version | Text Only | Print | Product List | Glossary Off
Versions: 1 2 3 4 5 6 7 8 9 10 11 12 13 14 15 16 17 18 19 20 21 22 23 24 25

076
FTUS41 KLWX 211721
TAFIAD
TAF
KIAD 211721Z 2118/2224 11008KT P6SM OVC040
     FM220300 14008KT P6SM OVC025
     FM220600 15007KT 2SM -SHRA OVC008
     FM221500 21005KT 3SM -SHRA OVC010
     FM221600 21005KT 3SM -SHRA OVC020
     FM221800 23004KT P6SM BKN035
     FM222100 25005KT P6SM BKN050
     FM222300 26004KT P6SM SCT250=

USA.gov is the U.S. government's official web portal to all federal, state and local government web resources and services.